Tiempo atmosférico en la estación meteorológica de Elgoibar, Gipuzkoa (120 m.)



Fecha
DESCASC
Temp. máxima en grados centígrados (hora)
DESCASC
Temp. mínima en grados centígrados (hora)
DESCASC
Temp. media en grados centígrados
DESCASC
Racha de viento máxima en m/sg (hora)
DESCASC
Velocidad máxima media en intervalos de 10 minutos(hora)
DESCASC
Precipitaciones diarias en mm
DESCASC
Precipitaciones de 00:00 a 06:00 en mm
DESCASC
Precipitaciones de 06:00 a 12:00 en mm
DESCASC
Precipitaciones de 12:00 a 18:00 en mm
DESCASC
Precipitaciones de 18:00 a 24:00 en mm
DESCASC
25-04-2019 18.4 (16:10) 9.2 (06:40) 13.8 17.22 (20:30) 5.28 (10:00) 2.1 2.1 0 0 0
24-04-2019 16.4 (15:00) 7.4 (05:00) 11.9 15.83 (14:50) 4.17 (15:40) 5.4 0 0 0.2 5.2
23-04-2019 19 (14:20) 9.6 (23:50) 14.3 15.83 (15:50) 5.56 (15:50) 3.8 0 0 3.8 0
22-04-2019 21.8 (15:20) 9.4 (00:00) 15.6 8.89 (14:50) 2.78 (14:50) 0 0 0 0 0
21-04-2019 15.9 (16:50) 6.4 (00:00) 11.1 6.94 (19:00) 3.61 (18:40) 0 0 0 0 0
20-04-2019 18.4 (12:30) 7.8 (00:00) 13.1 6.67 (14:40) 3.89 (14:40) 0 0 0 0 0
19-04-2019 19.3 (17:10) 10.1 (00:00) 14.7 5.83 (18:10) 3.33 (17:40) 0 0 0 0 0
18-04-2019 19.8 (00:00) 11.3 (00:00) 15.5 13.89 (07:10) 7.5 (12:10) 0 0 0 0 0
17-04-2019 21.3 (20:30) 9.5 (00:00) 15.4 16.39 (04:50) 8.33 (03:10) 0 0 0 0 0
16-04-2019 16.4 (13:00) 7.4 (00:00) 11.9 6.94 (16:30) 4.17 (16:00) 0.2 0.2 0 0 0
15-04-2019 23.3 (15:50) 9.4 (00:00) 16.3 13.33 (17:10) 7.22 (16:20) 16.3 0 0 5.1 11.2
14-04-2019 18.2 (15:40) 7.7 (00:00) 13 6.11 (16:40) 3.33 (16:20) 0 0 0 0 0
13-04-2019 17.7 (15:30) 2.1 (00:00) 9.9 6.39 (16:00) 3.61 (16:00) 0 0 0 0 0
12-04-2019 14 (13:30) 5.4 (00:00) 9.7 7.22 (15:10) 3.33 (15:00) 0 0 0 0 0
11-04-2019 12.7 (17:40) 6.2 (00:00) 9.4 6.11 (18:20) 2.78 (17:20) 2.2 1 0.3 0.9 0
10-04-2019 10.7 (19:30) 4.8 (00:00) 7.8 5.28 (12:40) 2.5 (12:50) 10.8 0.1 0 9.8 0.9
09-04-2019 18.9 (15:30) 4.5 (00:00) 11.7 12.5 (08:10) 5 (08:00) 7.1 0.1 0 2.1 4.9
08-04-2019 13.3 (16:40) 6.3 (00:00) 9.8 12.22 (05:00) 5.56 (05:00) 0.8 0 0 0.8 0
07-04-2019 13.7 (15:40) 6.1 (00:00) 9.9 10 (23:40) 4.17 (11:40) 0.1 0.1 0 0 0
06-04-2019 15.4 (17:20) 5.3 (00:00) 10.3 12.22 (13:50) 4.72 (10:20) 3.5 0 0 0 3.5
05-04-2019 14.7 (13:50) 6.7 (00:00) 10.7 11.39 (16:10) 5.56 (15:20) 1 0 0 0.5 0.5
04-04-2019 15.2 (16:50) 2.3 (00:00) 8.7 15 (23:20) 5.56 (22:40) 10.9 9.1 1.8 0 0
03-04-2019 9.3 (00:00) 2.7 (00:00) 6 15.83 (15:30) 5 (15:30) 9.9 1.2 1.2 1.9 5.6
02-04-2019 15.5 (14:50) 7 (00:00) 11.3 7.22 (13:30) 3.61 (13:30) 1.4 0 0 0 1.4
01-04-2019 15.3 (16:00) 9 (00:00) 12.2 8.89 (03:00) 3.89 (03:00) 2.1 1.4 0.7 0 0
31-03-2019 21 (14:00) 5.9 (00:00) 13.5 7.78 (16:20) 4.72 (05:20) 0 0 0 0 0
30-03-2019 22.4 (15:00) 8.7 (00:00) 15.5 16.11 (00:20) 8.61 (01:30) 0 0 0 0 0
29-03-2019 22.1 (16:10) 2.6 (00:00) 12.4 15.28 (22:00) 7.22 (22:40) 0 0 0 0 0
28-03-2019 14.5 (11:40) 5.2 (00:00) 9.8 7.22 (14:40) 3.33 (15:40) 0 0 0 0 0
27-03-2019 13.3 (14:00) 1.4 (00:00) 7.4 7.22 (13:50) 4.17 (14:30) 0 0 0 0 0

Gráficas

Temp. máximas Temp. mínimas Temp. medias Precipitaciones Rachas de viento máximas Velocidades máximas media en intervalos de 10 minutos

Datos horarios

Fecha y hora oficial Temperatura (ºC) Velocidad del viento (km/h) Dirección del viento Racha (km/h) Dirección de racha Precipitación (mm) Presión (hPa) Tendencia (hPa) Humedad (%)
2019-04-25 23:00:00 13.3 8 Sudoeste 27 Sudoeste 0 997.4 4.2 50
2019-04-25 22:00:00 13.8 10 Sudoeste 41 Sudoeste 0 995.8 3 49
2019-04-25 21:00:00 14.3 11 Sudoeste 62 Sudoeste 0 993.6 1 46
2019-04-25 20:00:00 14.9 5 Sudoeste 45 Sudoeste 0 993.2 0.8 44
2019-04-25 19:00:00 16.4 6 Sudoeste 49 Sudeste 0 992.8 0.3 42
2019-04-25 18:00:00 17 7 Sudoeste 39 Sudoeste 0 992.6 0.4 41
2019-04-25 17:00:00 17.5 10 Sudoeste 38 Sudoeste 0 992.4 0 39
2019-04-25 16:00:00 18 8 Sur 42 Sudoeste 0 992.5 -0.1 38
2019-04-25 15:00:00 17 13 Sudoeste 43 Sudoeste 0 992.2 0.5 41
2019-04-25 14:00:00 15.9 10 Sudoeste 45 Sudoeste 0 992.4 1.6 45
2019-04-25 13:00:00 14.8 15 Sur 45 Sudoeste 0 992.6 1.8 49
2019-04-25 12:00:00 14.3 8 Sudoeste 57 Oeste 0 991.7 1.3 52
2019-04-25 11:00:00 13.7 12 Sudoeste 55 Sudoeste 0 990.8 0.9 53
2019-04-25 10:00:00 12.4 19 Sur 42 Sudoeste 0 990.8 2.4 57
2019-04-25 09:00:00 11.4 11 Sur 40 Sur 0 990.4 2.4 61
2019-04-25 08:00:00 11.1 11 Sur 44 Sudoeste 0 989.9 2.4 63
2019-04-25 07:00:00 10.4 14 Sur 34 Sur 0 988.4 1.1 68
2019-04-25 06:00:00 9.8 3 Sur 32 Sur 0 988 0.7 77
2019-04-25 05:00:00 11 12 Sur 30 Sur 0 987.5 0.2 78
2019-04-25 04:00:00 10.2 2 Sudoeste 19 Noroeste 1.1 987.3 1.4 89
2019-04-25 03:00:00 10.7 2 Sudoeste 19 Sur 0.8 987.3 1 85
2019-04-25 02:00:00 12.4 8 Sur 25 Sudoeste 0.2 987.3 1.5 74
2019-04-25 01:00:00 13.1 3 Sudeste 25 Sudeste 0 985.9 0.8 68
2019-04-25 00:00:00 13.7 11 Sur 26 Sur 0 986.3 2.3 65
2019-04-24 23:00:00 13.7 5 Sur 40 Sudoeste 0 985.8 1.3 68
2019-04-24 22:00:00 13.6 11 Sudoeste 47 Sudoeste 0 985.1 1.6 70
2019-04-24 21:00:00 12.6 9 Sudoeste 44 Oeste 0.2 984 0.3 78
2019-04-24 20:00:00 11.3 0 Calma 22 Sudoeste 5 984.5 1.4 84
2019-04-24 19:00:00 13.2 3 Este 30 Este 0 983.5 0.8 71
2019-04-24 18:00:00 12.9 4 Este 39 Este 0.2 983.7 1 72
2019-04-24 17:00:00 15.5 5 Este 44 Este 0 983.1 0.2 54
2019-04-24 16:00:00 15 15 Este 51 Este 0 982.7 -1.1 50
2019-04-24 15:00:00 16.1 3 Norte 57 Sudoeste 0 982.7 -2.1 48
2019-04-24 14:00:00 16.2 0 Calma 34 Sudoeste 0 982.9 -1.9 48
2019-04-24 13:00:00 14.1 3 Sudoeste 36 Este 0 983.8 -1 52
2019-04-24 12:00:00 12.4 3 Oeste 30 Este 0 984.8 -0.6 52
2019-04-24 11:00:00 11.9 0 Calma 28 Sudoeste 0 984.8 -0.5 55
2019-04-24 10:00:00 10.8 4 Oeste 26 Oeste 0 984.8 -0.6 60
2019-04-24 09:00:00 10.4 9 Sudoeste 45 Sudoeste 0 985.4 -0.3 60
2019-04-24 08:00:00 9.6 9 Sudoeste 37 Sudoeste 0 985.3 -0.4 63
2019-04-24 07:00:00 9.5 5 Oeste 26 Oeste 0 985.4 -0.9 68
2019-04-24 06:00:00 9.2 6 Sudoeste 28 Sudeste 0 985.7 -0.6 73
2019-04-24 05:00:00 7.4 3 Sudoeste 15 Noroeste 0 985.7 -0.4 88
2019-04-24 04:00:00 8.6 7 Sudoeste 14 Sur 0 986.3 0.4 87
2019-04-24 03:00:00 8.9 9 Sudoeste 19 Sur 0 986.3 0.7 85
2019-04-24 02:00:00 9.1 7 Sudoeste 14 Sudoeste 0 986.1 2.2 83
2019-04-24 01:00:00 9.4 8 Sur 19 Sudoeste 0 985.9 3.3 81
2019-04-24 00:00:00 9.7 0 Calma 30 Sudoeste 0 985.6 4.3 80
2019-04-23 23:00:00 11.2 3 Sur 13 Sudoeste 0 983.9 2.8 78
2019-04-23 22:00:00 11.6 8 Sudoeste 20 Sur 0 982.6 1.4 73
2019-04-23 21:00:00 12 7 Sur 12 Sur 0 981.3 0.6 75
2019-04-23 20:00:00 12.4 5 Noroeste 14 Este 0 981.1 0.3 83
2019-04-23 19:00:00 12.7 0 Calma 10 Sudoeste 0 981.2 0 85
2019-04-23 18:00:00 12.1 5 Sudoeste 12 Sudoeste 0.2 980.7 1.8 87
2019-04-23 17:00:00 11.6 9 Sudoeste 32 Sudoeste 1.2 980.8 1.7 87
2019-04-23 16:00:00 11.7 16 Sudoeste 57 Sudoeste 2.4 981.2 1.7 80
2019-04-23 15:00:00 18 6 Sudoeste 15 Este 0 978.9 -0.9 57
2019-04-23 14:00:00 18.5 9 Este 26 Este 0 979.1 -0.7 56
2019-04-23 13:00:00 17.9 8 Este 15 Este 0 979.5 0 58
2019-04-23 12:00:00 17 2 Sudoeste 11 Este 0 979.8 0.4 62
2019-04-23 11:00:00 16.5 0 Calma 22 Este 0 979.8 0.3 63
2019-04-23 10:00:00 16.4 5 Sudeste 22 Nordeste 0 979.5 0.3 61
2019-04-23 09:00:00 15.6 2 Oeste 18 Sudoeste 0 979.4 0.1 63
2019-04-23 08:00:00 14.3 7 Sudoeste 17 Sudoeste 0 979.5 0.1 65
2019-04-23 07:00:00 15 8 Sudoeste 23 Este 0 979.2 -0.5 63
2019-04-23 06:00:00 14.5 2 Sur 24 Este 0 979.3 -1 63
2019-04-23 05:00:00 14.6 2 Sur 17 Sur 0 979.4 -1.3 64
2019-04-23 04:00:00 14 3 Sudoeste 20 Oeste 0 979.7 -1.3 67
2019-04-23 03:00:00 12.1 0 Calma 17 Sudoeste 0 980.3 -1.1 72
2019-04-23 02:00:00 13.4 4 Sur 17 Sudoeste 0 980.7 -1 68
2019-04-23 01:00:00 13.6 0 Calma 17 Sudoeste 0 981 -1.1 68
2019-04-23 00:00:00 13.9 4 Sudoeste 14 Sudeste 0 981.4 -1.1 69
2019-04-22 23:00:00 13.8 5 Sudoeste 14 Sudoeste 0 981.7 -0.8 75
2019-04-22 22:00:00 14.1 0 Calma 7 Este 0 982.1 -0.5 72
2019-04-22 21:00:00 15.8 0 Calma 2 Nordeste 0 982.5 -0.2 67
2019-04-22 20:00:00 16.9 3 Norte 13 Norte 0 982.5 -0.6 62
2019-04-22 19:00:00 17.2 7 Norte 17 Norte 0 982.6 -1.2 60
2019-04-22 18:00:00 17.2 8 Norte 21 Noroeste 0 982.7 -1.9 66
2019-04-22 17:00:00 17.3 7 Norte 19 Norte 0 983.1 -2.5 65
2019-04-22 16:00:00 17.7 10 Norte 21 Este 0 983.8 -3.2 59
2019-04-22 15:00:00 21.3 6 Oeste 32 Oeste 0 984.6 -3.5 43
2019-04-22 14:00:00 20.2 5 Oeste 14 Noroeste 0 985.6 -3.3 47
2019-04-22 13:00:00 19.3 0 Calma 10 Noroeste 0 987 -2.5 55
2019-04-22 12:00:00 17 0 Calma 14 Sudoeste 0 988.1 -2.3 65
2019-04-22 11:00:00 14.8 0 Calma 9 Oeste 0 988.9 -2 76
2019-04-22 10:00:00 12.5 0 Calma 7 Sudoeste 0 989.5 -1.6 86
2019-04-22 09:00:00 10.9 0 Calma 8 Oeste 0 990.4 -1.3 93
2019-04-22 08:00:00 9.7 0 Calma 6 Oeste 0 990.9 -2.1 93
2019-04-22 07:00:00 9.8 0 Calma -- -- 0 991.1 -2.5 93
2019-04-22 06:00:00 9.9 0 Calma -- -- 0 991.7 -2.9 92
2019-04-22 05:00:00 10.3 0 Calma -- -- 0 993 -2.5 91
2019-04-22 04:00:00 10.3 0 Calma -- -- 0 993.6 -2.6 90
2019-04-22 03:00:00 10.5 0 Calma -- -- 0 994.6 -2.2 90
2019-04-22 02:00:00 10.6 0 Calma -- -- 0 995.5 -1.8 89
2019-04-22 01:00:00 10.9 0 Calma -- -- 0 996.2 -1.4 87
2019-04-22 00:00:00 11 0 Calma -- -- 0 996.8 -0.9 86
2019-04-21 23:00:00 11.3 0 Calma -- -- 0 997.3 -0.5 84
2019-04-21 22:00:00 12 0 Calma 7 Este 0 997.6 -0.1 81
2019-04-21 21:00:00 12.6 3 Este 13 Noroeste 0 997.7 -0.3 76
2019-04-21 20:00:00 12.9 8 Norte 22 Norte 0 997.8 -0.6 74
2019-04-21 19:00:00 13.5 12 Norte 25 Norte 0 997.7 -1.3 69
2019-04-21 18:00:00 14.6 9 Norte 21 Norte 0 998 -1.7 70
2019-04-21 17:00:00 15.5 8 Norte 14 Norte 0 998.4 -1.7 68
2019-04-21 16:00:00 14.9 6 Norte 18 Norte 0 999 -1.8 72
2019-04-21 15:00:00 14.1 11 Norte 20 Norte 0 999.7 -1.8 73
2019-04-21 14:00:00 14.2 10 Norte 17 Norte 0 1000.1 -1.9 70
2019-04-21 13:00:00 15 5 Este 17 Norte 0 1000.8 -1.9 64
2019-04-21 12:00:00 14.2 6 Norte 11 Norte 0 1001.5 -1.5 66
2019-04-21 11:00:00 13.9 0 Calma 6 Este 0 1002 -1 75
2019-04-21 10:00:00 10.5 0 Calma 0 Calma 0 1002.7 -0.4 89
2019-04-21 09:00:00 7.6 0 Calma 13 Sudoeste 0 1003 -0.3 93
2019-04-21 08:00:00 6.7 2 Sur 14 Sudoeste 0 1003 -0.5 93
2019-04-21 07:00:00 6.9 3 Sudoeste 12 Sudoeste 0 1003.1 -1.1 92
2019-04-21 06:00:00 6.9 0 Calma 11 Sudoeste 0 1003.3 -1.5 91
2019-04-21 05:00:00 7.5 3 Sur 9 Sudoeste 0 1003.5 -2.3 90
2019-04-21 04:00:00 7.9 0 Calma 7 Sur 0 1004.2 -1.6 87
2019-04-21 03:00:00 8.5 3 Sudoeste 12 Sudoeste 0 1004.8 -1.3 86
2019-04-21 02:00:00 9 3 Sur 9 Nordeste 0 1005.8 -0.5 85
2019-04-21 01:00:00 9.4 0 Calma 13 Sudoeste 0 1005.8 -0.1 82
2019-04-21 00:00:00 10.5 0 Calma 8 Sudoeste 0 1006.1 0.5 81
2019-04-20 23:00:00 11.7 0 Calma 6 Este 0 1006.3 1 78
2019-04-20 22:00:00 12.5 0 Calma 6 Este 0 1005.9 0.6 75
2019-04-20 21:00:00 13.3 2 Nordeste 9 Norte 0 1005.6 0.2 70
2019-04-20 20:00:00 14.5 4 Norte 15 Norte 0 1005.3 0 65
2019-04-20 19:00:00 15.7 8 Norte 20 Nordeste 0 1005.3 -0.3 60
2019-04-20 18:00:00 16 10 Norte 24 Norte 0 1005.4 -0.8 61
2019-04-20 17:00:00 16.6 11 Norte 23 Norte 0 1005.3 -1.1 58
2019-04-20 16:00:00 16.8 10 Norte 21 Nordeste 0 1005.6 -1.6 60
2019-04-20 15:00:00 16.2 14 Nordeste 24 Norte 0 1006.2 -1.5 62
2019-04-20 14:00:00 17.5 12 Norte 21 Norte 0 1006.4 -1.8 59
2019-04-20 13:00:00 18 8 Norte 16 Norte 0 1007.2 -1.7 59
2019-04-20 12:00:00 17.6 5 Noroeste 15 Oeste 0 1007.7 -1.4 58
2019-04-20 11:00:00 16.3 0 Calma -- -- 0 1008.2 -0.8 72
2019-04-20 10:00:00 12.9 0 Calma -- -- 0 1008.9 0.2 87
2019-04-20 09:00:00 10 0 Calma 5 Sudoeste 0 1009.1 0.1 94
2019-04-20 08:00:00 8.5 0 Calma 8 Sur 0 1009 -0.1 94
2019-04-20 07:00:00 8.4 0 Calma 9 Sudoeste 0 1008.7 -0.7 93
2019-04-20 06:00:00 8.5 0 Calma -- -- 0 1009 -0.2 93
2019-04-20 05:00:00 9 2 Sur 10 Sudoeste 0 1009.1 -0.6 92
2019-04-20 04:00:00 9 0 Calma 2 Nordeste 0 1009.4 -0.6 91
2019-04-20 03:00:00 9.6 0 Calma 7 Sudoeste 0 1009.2 -1.1 89
2019-04-20 02:00:00 10.2 0 Calma -- -- 0 1009.7 -0.4 87
2019-04-20 01:00:00 10.6 0 Calma 6 Este 0 1010 1.2 84
2019-04-20 00:00:00 11.3 0 Calma 8 Este 0 1010.3 2.5 82
2019-04-19 23:00:00 12.1 0 Calma -- -- 0 1010.1 3.1 77
2019-04-19 22:00:00 13.8 0 Calma -- -- 0 1008.8 2 70
2019-04-19 21:00:00 15.2 0 Calma 7 Norte 0 1007.8 1.6 62
2019-04-19 20:00:00 16.2 5 Nordeste 15 Nordeste 0 1007 0.7 57
2019-04-19 19:00:00 16.9 9 Norte 21 Norte 0 1006.8 0.4 56
2019-04-19 18:00:00 18.6 12 Norte 20 Norte 0 1006.2 0 52
2019-04-19 17:00:00 19.1 9 Norte 19 Noroeste 0 1006.3 0.3 57
2019-04-19 16:00:00 18 9 Norte 19 Norte 0 1006.4 -0.1 59
2019-04-19 15:00:00 18.2 8 Norte 19 Norte 0 1006.2 0 54
2019-04-19 14:00:00 19 0 Calma 8 Nordeste 0 1006 0.3 56
2019-04-19 13:00:00 18.1 0 Calma -- -- 0 1006.5 1.1 60
2019-04-19 12:00:00 15.5 0 Calma -- -- 0 1006.2 1.4 71
2019-04-19 11:00:00 13.5 0 Calma -- -- 0 1005.7 1.4 90
2019-04-19 10:00:00 11.6 0 Calma -- -- 0 1005.4 1.7 95
2019-04-19 09:00:00 10.5 3 Sudeste 7 Nordeste 0 1004.8 2.1 95
2019-04-19 08:00:00 10.2 4 Este 9 Este 0 1004.3 1.6 94
2019-04-19 07:00:00 10.3 0 Calma 7 Norte 0 1003.7 1.5 94
2019-04-19 06:00:00 10.1 0 Calma 10 Oeste 0 1002.7 0.1 93
2019-04-19 05:00:00 10.4 5 Este 11 Noroeste 0 1002.7 0 93
2019-04-19 04:00:00 10.4 0 Calma 7 Nordeste 0 1002.2 -0.5 93
2019-04-19 03:00:00 10.6 0 Calma 10 Sudoeste 0 1002.6 0.3 92
2019-04-19 02:00:00 10.8 0 Calma 5 Sudoeste 0 1002.7 0.6 91
2019-04-19 01:00:00 11 0 Calma 7 Sudoeste 0 1002.7 0.8 89
2019-04-19 00:00:00 11.3 0 Calma -- -- 0 1002.3 1.2 87
2019-04-18 23:00:00 12.5 0 Calma 4 Este 0 1002.1 1.1 85
2019-04-18 22:00:00 12.7 0 Calma 5 Este 0 1001.9 1.1 84
2019-04-18 21:00:00 12.9 0 Calma 10 Noroeste 0 1001.1 0.8 81
2019-04-18 20:00:00 13.5 5 Norte 17 Norte 0 1001 0.6 81
2019-04-18 19:00:00 13.5 7 Norte 22 Norte 0 1000.8 0.5 81
2019-04-18 18:00:00 13.8 10 Norte 26 Norte 0 1000.3 0 81
2019-04-18 17:00:00 13.9 13 Norte 27 Norte 0 1000.4 0.7 81
2019-04-18 16:00:00 14.2 13 Norte 25 Norte 0 1000.3 -0.3 82
2019-04-18 15:00:00 14.5 15 Noroeste 26 Noroeste 0 1000.3 -0.2 82
2019-04-18 14:00:00 14.6 6 Norte 17 Sudeste 0 999.7 -0.5 80
2019-04-18 13:00:00 16 8 Sudeste 45 Sudeste 0 1000.6 1.3 56
2019-04-18 12:00:00 15.7 21 Este 40 Este 0 1000.5 2 57
2019-04-18 11:00:00 14.9 0 Calma 9 Noroeste 0 1000.2 2.6 60
2019-04-18 10:00:00 15.7 5 Oeste 13 Oeste 0 999.3 2.9 55
2019-04-18 09:00:00 16.1 2 Oeste 15 Noroeste 0 998.5 1.4 52
2019-04-18 08:00:00 16.5 12 Este 50 Sudeste 0 997.6 0.4 50
2019-04-18 07:00:00 16.9 19 Este 41 Este 0 996.4 -1.1 49
2019-04-18 06:00:00 16.7 5 Sudoeste 43 Este 0 997.1 0.1 49
2019-04-18 05:00:00 16.9 3 Nordeste 21 Nordeste 0 997.2 -0.3 47
2019-04-18 04:00:00 17.4 11 Sudeste 35 Este 0 997.5 -0.1 46
2019-04-18 03:00:00 16.2 0 Calma 18 Sudeste 0 997 0 51
2019-04-18 02:00:00 16.4 5 Sur 12 Noroeste 0 997.5 1.2 54
2019-04-18 01:00:00 18.6 5 Oeste 17 Oeste 0 997.6 2.9 49
2019-04-18 00:00:00 19.8 5 Nordeste 44 Este 0 997 3.4 45
2019-04-17 23:00:00 20.5 11 Sudoeste 30 Oeste 0 996.3 2.7 43
2019-04-17 22:00:00 20.9 8 Sudeste 45 Sudeste 0 994.7 1.5 44
2019-04-17 21:00:00 21.1 17 Sudeste 41 Sudeste 0 993.6 0.2 44
2019-04-17 20:00:00 20.9 7 Nordeste 29 Nordeste 0 993.6 -0.6 44
2019-04-17 19:00:00 21 6 Este 36 Este 0 993.2 -1.6 46
2019-04-17 18:00:00 20.7 7 Este 23 Este 0 993.4 -1.5 47
2019-04-17 17:00:00 20.7 9 Este 26 Sudeste 0 994.2 -1.3 46
2019-04-17 16:00:00 20.9 4 Oeste 19 Sudoeste 0 994.8 -1.3 47
2019-04-17 15:00:00 19.8 4 Oeste 42 Nordeste 0 994.9 -2.4 47
2019-04-17 14:00:00 18.8 3 Noroeste 19 Nordeste 0 995.5 -1.7 50
2019-04-17 13:00:00 17.2 3 Nordeste 31 Sudeste 0 996.1 -1 52
2019-04-17 12:00:00 16.3 17 Este 46 Este 0 997.3 0.3 52
2019-04-17 11:00:00 16.1 16 Sudeste 44 Sudeste 0 997.2 -0.2 52
2019-04-17 10:00:00 15.8 10 Sudeste 53 Sudeste 0 997.1 -0.3 52
2019-04-17 09:00:00 15.5 6 Sur 53 Sudeste 0 997 -0.4 52
2019-04-17 08:00:00 15.2 5 Sudeste 47 Este 0 997.4 0.4 52
2019-04-17 07:00:00 15.8 4 Este 40 Este 0 997.4 -0.4 50
2019-04-17 06:00:00 16.1 4 Nordeste 48 Este 0 997.4 -1 49
2019-04-17 05:00:00 16.7 21 Este 59 Nordeste 0 997 -2.2 48
2019-04-17 04:00:00 17.3 18 Este 57 Este 0 997.8 -1.6 49
2019-04-17 03:00:00 17.3 25 Este 51 Este 0 998.4 -1.8 51
2019-04-17 02:00:00 11.9 2 Sur 12 Noroeste 0 999.2 -1.6 94
2019-04-17 01:00:00 9.7 2 Oeste 10 Sudoeste 0 999.4 -1.5 93
2019-04-17 00:00:00 10.2 0 Calma -- -- 0 1000.2 -1 91
2019-04-16 23:00:00 10.9 0 Calma -- -- 0 1000.8 -0.2 89
2019-04-16 22:00:00 11.9 0 Calma -- -- 0 1000.9 -0.4 84
2019-04-16 21:00:00 13.2 0 Calma 17 Norte 0 1001.2 -0.4 78
2019-04-16 20:00:00 14.2 10 Norte 18 Nordeste 0 1001 -1.2 73
2019-04-16 19:00:00 15.2 6 Norte 21 Norte 0 1001.3 -1.9 70
2019-04-16 18:00:00 15.8 10 Norte 21 Norte 0 1001.6 -2 68
2019-04-16 17:00:00 15.6 9 Norte 25 Norte 0 1002.2 -2.1 69
2019-04-16 16:00:00 15.4 15 Norte 23 Noroeste 0 1003.2 -1.8 68
2019-04-16 15:00:00 15.7 11 Norte 21 Norte 0 1003.6 -2 68
2019-04-16 14:00:00 16.2 8 Norte 17 Noroeste 0 1004.3 -1.9 63
2019-04-16 13:00:00 16.4 7 Nordeste 14 Noroeste 0 1005 -1.2 58
2019-04-16 12:00:00 14.9 4 Oeste 9 Sudoeste 0 1005.6 -0.9 67
2019-04-16 11:00:00 13.2 0 Calma 9 Nordeste 0 1006.2 0.2 90
2019-04-16 10:00:00 10.4 5 Nordeste 9 Nordeste 0 1006.2 1 97
2019-04-16 09:00:00 8.5 0 Calma -- -- 0 1006.5 1.2 97
2019-04-16 08:00:00 7.7 0 Calma -- -- 0 1006 0.9 96
2019-04-16 07:00:00 8 0 Calma 8 Este 0 1005.2 0.5 96
2019-04-16 06:00:00 8.2 0 Calma 6 Nordeste 0 1005.3 0.8 95
2019-04-16 05:00:00 8.9 0 Calma 6 Nordeste 0 1005.1 0.7 95
2019-04-16 04:00:00 9.5 0 Calma -- -- 0 1004.7 0.3 95
2019-04-16 03:00:00 10.3 0 Calma 6 Oeste 0.1 1004.5 0.7 95
2019-04-16 02:00:00 10.9 0 Calma 7 Sur 0.1 1004.4 1.3 95
2019-04-16 01:00:00 11.2 0 Calma 14 Sudoeste 0 1004.4 2.6 95
2019-04-16 00:00:00 11.4 3 Sudoeste 12 Sudoeste 1.6 1003.8 2.9 95
2019-04-15 23:00:00 11.7 0 Calma 6 Nordeste 0.9 1003.1 3.7 94
2019-04-15 22:00:00 11.8 0 Calma 8 Nordeste 2.8 1001.8 3.7 92
2019-04-15 21:00:00 12.1 0 Calma 10 Este 2.5 1000.9 3.6 89
2019-04-15 20:00:00 12.9 0 Calma 32 Oeste 0.1 999.4 5.9 84
2019-04-15 19:00:00 14.1 10 Oeste 36 Oeste 3.3 998.1 6 87
2019-04-15 18:00:00 14.6 6 Sudoeste 48 Sudoeste 5.1 997.3 4.2 83
2019-04-15 17:00:00 19.2 15 Oeste 42 Oeste 0 993.5 0.2 56
2019-04-15 16:00:00 22.5 22 Este 33 Este 0 992.1 -1.6 47
2019-04-15 15:00:00 22.5 3 Sudoeste 19 Nordeste 0 993.1 -1.2 47
2019-04-15 14:00:00 22.8 6 Este 32 Este 0 993.3 -1.8 48
2019-04-15 13:00:00 21.8 18 Este 34 Este 0 993.7 -2.3 48
2019-04-15 12:00:00 21.9 8 Oeste 23 Sudoeste 0 994.3 -2.5 53
2019-04-15 11:00:00 16.9 6 Oeste 17 Sudoeste 0 995.1 -2.2 75
2019-04-15 10:00:00 14.1 10 Sudoeste 21 Sudoeste 0 996 -1.5 82
2019-04-15 09:00:00 11.6 0 Calma 18 Sudoeste 0 996.8 -1.7 96
2019-04-15 08:00:00 10.7 6 Sur 18 Sudoeste 0 997.3 -1.3 96
2019-04-15 07:00:00 10.3 3 Sudoeste 12 Sudoeste 0 997.5 -2 96
2019-04-15 06:00:00 9.9 0 Calma 10 Sudoeste 0 998.5 -1.7 96
2019-04-15 05:00:00 9.6 0 Calma 9 Sur 0 998.6 -2.5 96
2019-04-15 04:00:00 9.7 0 Calma 8 Sudoeste 0 999.5 -2.3 95
2019-04-15 03:00:00 9.7 0 Calma -- -- 0 1000.2 -2.1 94
2019-04-15 02:00:00 10.1 0 Calma -- -- 0 1001.1 -1.1 93
2019-04-15 01:00:00 10.7 0 Calma -- -- 0 1001.8 -0.5 92
2019-04-15 00:00:00 11.3 0 Calma -- -- 0 1002.3 0.6 90
2019-04-14 23:00:00 12.3 0 Calma -- -- 0 1002.2 0.9 85
2019-04-14 22:00:00 13.4 3 Este 7 Este 0 1002.3 0.8 82
2019-04-14 21:00:00 14.8 0 Calma 9 Norte 0 1001.7 -0.2 75
2019-04-14 20:00:00 16.5 0 Calma 8 Norte 0 1001.3 -1.6 71
2019-04-14 19:00:00 17.9 0 Calma 13 Este 0 1001.5 -1.3 69
2019-04-14 18:00:00 17.5 6 Este 13 Este 0 1001.9 -0.3 70
2019-04-14 17:00:00 15.6 9 Norte 22 Norte 0 1002.9 0.2 69
2019-04-14 16:00:00 17.7 6 Norte 14 Norte 0 1002.8 0.1 52
2019-04-14 15:00:00 17.4 0 Calma 21 Norte 0 1002.2 -0.5 49
2019-04-14 14:00:00 16.1 9 Norte 18 Norte 0 1002.7 0.1 48
2019-04-14 13:00:00 15.4 9 Norte 18 Norte 0 1002.7 0.2 53
2019-04-14 12:00:00 15.5 0 Calma -- -- 0 1002.7 0 61
2019-04-14 11:00:00 13 0 Calma -- -- 0 1002.6 0.1 71
2019-04-14 10:00:00 11.1 0 Calma -- -- 0 1002.5 0.2 81
2019-04-14 09:00:00 9.5 0 Calma -- -- 0 1002.7 0.3 88
2019-04-14 08:00:00 8.9 0 Calma 4 Sudeste 0 1002.5 0 89
2019-04-14 07:00:00 8.7 0 Calma 7 Sudoeste 0 1002.3 -0.2 89
2019-04-14 06:00:00 8.1 0 Calma -- -- 0 1002.4 -0.2 90
2019-04-14 05:00:00 8.1 0 Calma -- -- 0 1002.5 -0.5 90
2019-04-14 04:00:00 7.9 0 Calma -- -- 0 1002.5 -1 89
2019-04-14 03:00:00 7.9 0 Calma -- -- 0 1002.6 -1.2 87
2019-04-14 02:00:00 8.1 0 Calma -- -- 0 1003 -0.7 87
2019-04-14 01:00:00 8.5 0 Calma -- -- 0 1003.5 0.1 85
2019-04-14 00:00:00 8.6 0 Calma -- -- 0 1003.8 1.1 83
2019-04-13 23:00:00 9.4 0 Calma -- -- 0 1003.7 1.1 79
2019-04-13 22:00:00 10.9 0 Calma 5 Nordeste 0 1003.4 1.1 75
2019-04-13 21:00:00 12.3 0 Calma 8 Noroeste 0 1002.7 0.6 68
2019-04-13 20:00:00 13.8 5 Norte 17 Nordeste 0 1002.6 0.3 59
2019-04-13 19:00:00 15.6 10 Norte 22 Nordeste 0 1002.3 -0.4 56
2019-04-13 18:00:00 16.4 11 Norte 22 Norte 0 1002.1 -1.4 52
2019-04-13 17:00:00 17.2 10 Nordeste 21 Norte 0 1002.3 -1.7 51
2019-04-13 16:00:00 16.8 13 Norte 23 Nordeste 0 1002.7 -2.1 50
2019-04-13 15:00:00 17.3 10 Norte 19 Norte 0 1003.5 -2 50
2019-04-13 14:00:00 17 8 Norte 13 Nordeste 0 1004 -2.1 50
2019-04-13 13:00:00 16.1 0 Calma 8 Norte 0 1004.8 -1.5 49
2019-04-13 12:00:00 13.6 0 Calma -- -- 0 1005.5 -1 65
2019-04-13 11:00:00 8.9 0 Calma -- -- 0 1006.1 -0.2 91
2019-04-13 10:00:00 5.2 0 Calma 6 Este 0 1006.3 0.2 97
2019-04-13 09:00:00 2.8 0 Calma 6 Sudeste 0 1006.5 0.4 97
2019-04-13 08:00:00 2.4 2 Sudeste 9 Sudeste 0 1006.3 0.2 96
2019-04-13 07:00:00 2.1 3 Sur 10 Sudoeste 0 1006.1 -0.3 96
2019-04-13 06:00:00 2.5 0 Calma 10 Sudoeste 0 1006.1 -0.6 95
2019-04-13 05:00:00 2.5 0 Calma 4 Nordeste 0 1006.1 -0.9 94
2019-04-13 04:00:00 3.2 0 Calma 8 Sudoeste 0 1006.4 -0.8 93
2019-04-13 03:00:00 3.5 0 Calma -- -- 0 1006.7 -0.3 93
2019-04-13 02:00:00 3.9 0 Calma -- -- 0 1007 -0.1 92
2019-04-13 01:00:00 4.5 0 Calma 7 Sudoeste 0 1007.2 0.3 90
2019-04-13 00:00:00 5.4 0 Calma -- -- 0 1007 0.5 87
2019-04-12 23:00:00 6.5 0 Calma -- -- 0 1007.1 0.7 84
2019-04-12 22:00:00 7.7 0 Calma 5 Este 0 1006.9 0.7 77
2019-04-12 21:00:00 9.6 0 Calma 14 Norte 0 1006.5 0.5 70
2019-04-12 20:00:00 10.7 9 Norte 16 Norte 0 1006.4 0.4 65
2019-04-12 19:00:00 12 9 Norte 16 Noroeste 0 1006.2 -0.5 62
2019-04-12 18:00:00 12.6 10 Norte 21 Noroeste 0 1006 -1.3 62
2019-04-12 17:00:00 13.2 7 Nordeste 19 Norte 0 1006 -1.4 60
2019-04-12 16:00:00 12.9 8 Norte 26 Este 0 1006.7 -0.6 60
2019-04-12 15:00:00 13.3 12 Norte 23 Nordeste 0 1007.3 -0.1 60
2019-04-12 14:00:00 13.2 8 Norte 21 Norte 0 1007.4 -0.4 62
2019-04-12 13:00:00 12.9 5 Norte 17 Noroeste 0 1007.3 -0.4 64
2019-04-12 12:00:00 13.4 0 Calma 13 Este 0 1007.4 -0.2 70
2019-04-12 11:00:00 11 0 Calma 7 Este 0 1007.8 0.4 82
2019-04-12 10:00:00 9.9 0 Calma -- -- 0 1007.7 0.4 92
2019-04-12 09:00:00 8.8 0 Calma -- -- 0 1007.6 0.3 92
2019-04-12 08:00:00 8.5 0 Calma 6 Sur 0 1007.4 0.1 92
2019-04-12 07:00:00 8.5 0 Calma 7 Sur 0 1007.3 0 92
2019-04-12 06:00:00 8.6 0 Calma 6 Sudoeste 0 1007.3 -0.4 92
2019-04-12 05:00:00 8.7 0 Calma 8 Sudoeste 0 1007.3 -0.8 92
2019-04-12 04:00:00 8.6 0 Calma 5 Sudeste 0 1007.3 -1 92
2019-04-12 03:00:00 8.6 0 Calma -- -- 0 1007.7 -0.8 90
2019-04-12 02:00:00 8.7 0 Calma -- -- 0 1008.1 -0.3 90
2019-04-12 01:00:00 8.7 0 Calma 6 Nordeste 0 1008.3 0.2 89
2019-04-12 00:00:00 8.8 0 Calma 8 Sudoeste 0 1008.5 1 88
2019-04-11 23:00:00 8.9 0 Calma 7 Este 0 1008.4 1.3 87
2019-04-11 22:00:00 8.8 0 Calma 6 Sudoeste 0 1008.1 1.3 84
2019-04-11 21:00:00 9.5 0 Calma 10 Oeste 0 1007.5 0.8 78
2019-04-11 20:00:00 10.7 2 Noroeste 15 Noroeste 0 1007.1 0.7 73
2019-04-11 19:00:00 11.4 3 Noroeste 22 Oeste 0 1006.8 0.4 73
2019-04-11 18:00:00 12.2 6 Noroeste 21 Noroeste 0 1006.7 0.6 71
2019-04-11 17:00:00 11.3 3 Noroeste 18 Noroeste 0.3 1006.4 -0.1 82
2019-04-11 16:00:00 11 2 Nordeste 16 Sudoeste 0.6 1006.4 -0.1 82
2019-04-11 15:00:00 11.6 8 Oeste 21 Sudoeste 0 1006.1 -0.4 75
2019-04-11 14:00:00 11.4 4 Oeste 19 Oeste 0 1006.5 0.1 81
2019-04-11 13:00:00 11 8 Oeste 21 Oeste 0 1006.5 0.2 82
2019-04-11 12:00:00 10.6 0 Calma 12 Noroeste 0.1 1006.5 0.8 94
2019-04-11 11:00:00 9.7 0 Calma 9 Nordeste 0 1006.4 0.6 98
2019-04-11 10:00:00 7.9 0 Calma -- -- 0 1006.3 0.9 98
2019-04-11 09:00:00 7 0 Calma -- -- 0.2 1005.7 0.1 98
2019-04-11 08:00:00 6.4 0 Calma -- -- 0 1005.8 0.2 98
2019-04-11 07:00:00 6.4 0 Calma -- -- 0 1005.4 0.1 97
2019-04-11 06:00:00 6.5 0 Calma -- -- 0 1005.6 0.2 97
2019-04-11 05:00:00 6.7 0 Calma -- -- 0 1005.6 0 96
2019-04-11 04:00:00 7.5 0 Calma 10 Sudoeste 0 1005.3 -0.4 96
2019-04-11 03:00:00 7.9 4 Sudoeste 12 Sudoeste 0.1 1005.4 -0.1 96
2019-04-11 02:00:00 8.1 3 Sudoeste 10 Sudoeste 0.3 1005.6 0.6 95
2019-04-11 01:00:00 8.2 2 Nordeste 9 Sudoeste 0.6 1005.7 0.7 95
2019-04-11 00:00:00 8.2 4 Sudoeste 13 Sudoeste 0.1 1005.5 1.7 94
2019-04-10 23:00:00 8 8 Sudoeste 17 Sudoeste 0 1005 1.7 93
2019-04-10 22:00:00 9 6 Sudoeste 10 Sudoeste 0 1005 1.9 90
2019-04-10 21:00:00 10.1 0 Calma 9 Sudoeste 0 1003.8 1 90
2019-04-10 20:00:00 10.3 0 Calma 6 Nordeste 0.1 1003.3 1 92
2019-04-10 19:00:00 9.9 0 Calma 7 Este 0.7 1003.1 0.8 92
2019-04-10 18:00:00 9.6 4 Este 13 Sudoeste 1.4 1002.8 0.5 91
2019-04-10 17:00:00 9.8 3 Sudoeste 8 Sur 0.2 1002.3 0.2 93
2019-04-10 16:00:00 8.7 4 Sudoeste 12 Sudoeste 0.5 1002.3 0.7 94
2019-04-10 15:00:00 8.2 3 Oeste 14 Sudoeste 5.2 1002.3 1.1 94
2019-04-10 14:00:00 9 0 Calma 10 Norte 2.4 1002.1 1.1 93
2019-04-10 13:00:00 9.4 5 Este 19 Sudeste 0.1 1001.6 1 92
2019-04-10 12:00:00 9.6 0 Calma 9 Sudoeste 0 1001.2 0.9 94
2019-04-10 11:00:00 8.5 0 Calma 17 Sudoeste 0 1001 1.4 97
2019-04-10 10:00:00 7 0 Calma 6 Sudoeste 0 1000.6 1.8 98
2019-04-10 09:00:00 5.9 0 Calma 11 Sur 0 1000.3 1.6 98
2019-04-10 08:00:00 5.1 0 Calma -- -- 0 999.6 1 98
2019-04-10 07:00:00 5 0 Calma 7 Sudoeste 0 998.8 0.4 97
2019-04-10 06:00:00 5.4 0 Calma 5 Oeste 0 998.7 0.2 97
2019-04-10 05:00:00 6 0 Calma -- -- 0.1 998.6 0.1 97
2019-04-10 04:00:00 6.1 0 Calma 8 Sudoeste 0 998.4 0 96
2019-04-10 03:00:00 5.8 0 Calma 3 Sudoeste 0 998.5 0 96
2019-04-10 02:00:00 6 0 Calma 7 Sur 0 998.5 0.1 96
2019-04-10 01:00:00 6.6 0 Calma 13 Sudoeste 0 998.4 0.2 95
2019-04-10 00:00:00 7.4 0 Calma 9 Sudoeste 0 998.5 0.6 94
2019-04-09 23:00:00 8.1 3 Sudoeste 14 Sudoeste 0 998.4 0.7 93
2019-04-09 22:00:00 8.5 0 Calma 12 Sur 0 998.2 1.3 91
2019-04-09 21:00:00 9 6 Sudoeste 20 Sudoeste 0.4 997.9 1.7 90
2019-04-09 20:00:00 8.7 9 Sudoeste 39 Oeste 4.1 997.7 2.2 89
2019-04-09 19:00:00 10.2 0 Calma 6 Sudeste 0.4 996.9 2.4 89
2019-04-09 18:00:00 10.4 5 Sudeste 9 Sur 2.1 996.2 2 81
2019-04-09 17:00:00 13 5 Oeste 21 Nordeste 0 995.5 0.7 61
2019-04-09 16:00:00 14.7 11 Norte 26 Norte 0 994.5 -0.4 53
2019-04-09 15:00:00 17.5 2 Sudoeste 19 Sudoeste 0 994.2 -1.1 45
2019-04-09 14:00:00 15.8 8 Sur 17 Sudoeste 0 994.8 -0.8 48
2019-04-09 13:00:00 16.5 9 Sudoeste 26 Sudoeste 0 994.9 -0.6 48
2019-04-09 12:00:00 15.4 8 Sudeste 28 Sudoeste 0 995.3 -0.3 54
2019-04-09 11:00:00 13 13 Sur 34 Sudeste 0 995.6 0 58
2019-04-09 10:00:00 12.1 14 Sur 33 Sur 0 995.5 -0.3 61
2019-04-09 09:00:00 10.6 17 Sur 45 Sudeste 0 995.6 -0.4 65
2019-04-09 08:00:00 10.1 18 Sur 41 Sur 0 995.6 -0.6 67
2019-04-09 07:00:00 9.1 9 Sur 38 Sur 0 995.8 -0.9 78
2019-04-09 06:00:00 6.6 9 Sudoeste 31 Sudoeste 0 996 -1 88
2019-04-09 05:00:00 5.8 17 Sudoeste 31 Sudoeste 0 996.2 -1.2 95
2019-04-09 04:00:00 5.2 5 Sudoeste 25 Oeste 0 996.7 -0.8 95
2019-04-09 03:00:00 5 3 Sur 8 Sudoeste 0 997 -1 93
2019-04-09 02:00:00 5.2 0 Calma 6 Sudeste 0.1 997.4 -0.6 92
2019-04-09 01:00:00 5.8 0 Calma 7 Sur 0 997.5 -0.9 90
2019-04-09 00:00:00 6.6 4 Sudoeste 9 Sudoeste 0 998 0.2 87
2019-04-08 23:00:00 7.2 0 Calma 9 Sur 0 998 0.5 84
2019-04-08 22:00:00 8.1 0 Calma 8 Sudoeste 0 998.4 0.4 79
2019-04-08 21:00:00 9.4 2 Nordeste 7 Oeste 0 997.8 -0.4 72
2019-04-08 20:00:00 12 4 Oeste 7 Nordeste 0 997.5 -0.7 64
2019-04-08 19:00:00 12.6 0 Calma 8 Norte 0 998 -0.6 62
2019-04-08 18:00:00 12.4 6 Nordeste 12 Este 0 998.2 -0.5 64
2019-04-08 17:00:00 12.4 6 Norte 13 Nordeste 0 998.2 -0.5 72
2019-04-08 16:00:00 12.7 6 Este 11 Este 0 998.6 0.3 75
2019-04-08 15:00:00 12.6 6 Este 14 Este 0.1 998.7 0.9 76
2019-04-08 14:00:00 12.1 4 Nordeste 15 Oeste 0.7 998.7 1.2 80
2019-04-08 13:00:00 12.1 0 Calma 16 Oeste 0 998.3 1.5 78
2019-04-08 12:00:00 12.1 7 Oeste 21 Sudoeste 0 997.8 2 77
2019-04-08 11:00:00 12 5 Noroeste 17 Sudoeste 0 997.5 2.4 76
2019-04-08 10:00:00 12.3 5 Noroeste 10 Noroeste 0 996.8 2.2 72
2019-04-08 09:00:00 12.3 3 Sudoeste 20 Sudoeste 0 995.8 1.3 70
2019-04-08 08:00:00 12.2 4 Sudoeste 23 Sur 0 995.1 0.8 68
2019-04-08 07:00:00 12.1 11 Sur 29 Sur 0 994.6 0.3 66
2019-04-08 06:00:00 12.2 12 Sur 36 Sur 0 994.5 0.3 63
2019-04-08 05:00:00 12.4 20 Sur 44 Sur 0 994.3 -0.2 60
2019-04-08 04:00:00 12.1 16 Sur 41 Sur 0 994.3 -0.9 60
2019-04-08 03:00:00 11.6 8 Sudeste 29 Sur 0 994.2 -1.5 60
2019-04-08 02:00:00 12 13 Sur 34 Sudoeste 0 994.5 -1.4 58
2019-04-08 01:00:00 12.3 8 Sudoeste 31 Sudoeste 0 995.2 -1 57
2019-04-08 00:00:00 12.3 5 Sur 36 Oeste 0 995.7 -0.4 61
2019-04-07 23:00:00 8.6 0 Calma 5 Sudeste 0 995.9 0.1 85
2019-04-07 22:00:00 9.2 0 Calma 4 Sur 0 996.2 0.4 80
2019-04-07 21:00:00 10.2 0 Calma 10 Nordeste 0 996.1 0.1 74
2019-04-07 20:00:00 11.3 3 Norte 13 Norte 0 995.8 -0.4 69
2019-04-07 19:00:00 12.2 8 Norte 15 Norte 0 995.8 -0.4 66
2019-04-07 18:00:00 12.7 8 Norte 19 Norte 0 996 -0.6 64
2019-04-07 17:00:00 12.2 12 Norte 21 Norte 0 996.2 -0.2 63
2019-04-07 16:00:00 13 6 Norte 12 Norte 0 996.2 0 59
2019-04-07 15:00:00 12.7 0 Calma 13 Sur 0 996.6 0.9 60
2019-04-07 14:00:00 12.3 6 Sudoeste 21 Sudoeste 0 996.4 1.1 60
2019-04-07 13:00:00 11.7 8 Sur 27 Sur 0 996.2 1.7 63
2019-04-07 12:00:00 11.3 9 Sur 31 Sudoeste 0 995.7 1.8 68
2019-04-07 11:00:00 9.2 6 Sudoeste 17 Sudoeste 0 995.3 2.3 79
2019-04-07 10:00:00 8.2 6 Sudoeste 18 Sudoeste 0 994.5 2.4 84
2019-04-07 09:00:00 7.7 7 Sudoeste 14 Sudoeste 0 993.9 2.6 85
2019-04-07 08:00:00 7 3 Sudoeste 17 Sur 0 993 2.2 88
2019-04-07 07:00:00 6.9 8 Sudoeste 15 Sudoeste 0 992.1 1.8 92
2019-04-07 06:00:00 6.3 4 Sudoeste 14 Sudoeste 0 991.3 1.5 93
2019-04-07 05:00:00 6.1 4 Sur 13 Sudoeste 0 990.8 1.2 93
2019-04-07 04:00:00 6.6 0 Calma 10 Sur 0 990.3 0.7 92
2019-04-07 03:00:00 6.9 0 Calma 8 Sudoeste 0.1 989.8 1 92
2019-04-07 02:00:00 7.1 0 Calma 9 Este 0 989.6 1.3 93
2019-04-07 01:00:00 7.3 3 Nordeste 9 Oeste 0 989.6 1.8 93
2019-04-07 00:00:00 7 0 Calma 5 Este 0 988.8 1.8 92
2019-04-06 23:00:00 7.3 0 Calma 6 Este 0 988.3 2.9 90
2019-04-06 22:00:00 7.6 3 Nordeste 8 Nordeste 0 987.8 4.1 87
2019-04-06 21:00:00 8.1 6 Nordeste 29 Oeste 1.5 987 3.9 80
2019-04-06 20:00:00 11.1 8 Oeste 23 Noroeste 2 985.4 2.3 68
2019-04-06 19:00:00 12.6 11 Noroeste 21 Norte 0 983.7 0.8 54
2019-04-06 18:00:00 14.6 8 Sudoeste 24 Sudoeste 0 983.1 -0.4 46
2019-04-06 17:00:00 15 3 Sur 21 Sudoeste 0 983.1 -0.4 45
2019-04-06 16:00:00 15.1 6 Sudoeste 36 Sudeste 0 982.9 -0.8 45
2019-04-06 15:00:00 13.7 13 Sudoeste 38 Sudoeste 0 983.5 -0.9 48
2019-04-06 14:00:00 14.3 12 Sur 44 Sudoeste 0 983.5 -1 46
2019-04-06 13:00:00 13.5 13 Sur 31 Sur 0 983.7 -0.7 48
2019-04-06 12:00:00 12.4 8 Sudoeste 30 Sudoeste 0 984.4 -0.4 53
2019-04-06 11:00:00 11.4 14 Sur 36 Sudoeste 0 984.5 -0.5 56
2019-04-06 10:00:00 9.6 13 Sur 37 Sur 0 984.4 -0.3 63
2019-04-06 09:00:00 7.1 5 Sur 25 Este 0 984.8 -0.2 85
2019-04-06 08:00:00 5.8 6 Oeste 15 Sudoeste 0 985 -0.1 91
2019-04-06 07:00:00 6.3 3 Oeste 13 Oeste 0 984.7 -0.2 93
2019-04-06 06:00:00 6.8 2 Sudoeste 10 Sudoeste 0 985 0.2 93
2019-04-06 05:00:00 7 4 Este 13 Sudeste 0 985.1 -0.1 93
2019-04-06 04:00:00 6.3 0 Calma 9 Noroeste 0 984.9 -0.1 93
2019-04-06 03:00:00 6.2 0 Calma 6 Sudoeste 0 984.8 0 93
2019-04-06 02:00:00 6.1 0 Calma 5 Oeste 0 985.2 0.4 93
2019-04-06 01:00:00 6.4 0 Calma 8 Sudoeste 0 985 0.3 92
2019-04-06 00:00:00 6.8 2 Sudoeste 7 Sudoeste 0 984.8 0.8 92
2019-04-05 23:00:00 7.1 0 Calma 7 Sudeste 0 984.8 1.2 90
2019-04-05 22:00:00 7.5 0 Calma 12 Este 0.1 984.7 1.3 88
2019-04-05 21:00:00 8 3 Nordeste 19 Sudeste 0.4 984 0.5 85
2019-04-05 20:00:00 8.7 0 Calma 12 Sudeste 0 983.6 0 82
2019-04-05 19:00:00 8.9 2 Nordeste 16 Sudeste 0 983.4 0 81
2019-04-05 18:00:00 8.8 12 Este 19 Sudeste 0 983.5 0.3 79
2019-04-05 17:00:00 9 3 Sudeste 41 Este 0.5 983.6 1.2 77
2019-04-05 16:00:00 9.9 20 Este 38 Este 0 983.4 0.5 68
2019-04-05 15:00:00 11.1 17 Este 38 Este 0 983.2 0 60
2019-04-05 14:00:00 14.4 5 Oeste 19 Sudoeste 0 982.4 -0.4 53
2019-04-05 13:00:00 12.9 8 Oeste 22 Sudoeste 0 982.9 0.1 56
2019-04-05 12:00:00 12.1 4 Oeste 22 Sudoeste 0 983.2 0.4 56
2019-04-05 11:00:00 11.7 8 Oeste 19 Oeste 0 982.8 0.5 56
2019-04-05 10:00:00 11.2 3 Noroeste 12 Sudoeste 0 982.8 0.7 58
2019-04-05 09:00:00 9.6 0 Calma 8 Oeste 0 982.8 0.6 60
2019-04-05 08:00:00 8.3 4 Sudeste 15 Sudoeste 0 982.3 -0.4 62
2019-04-05 07:00:00 8.6 2 Sur 16 Sudoeste 0 982.1 -1 62
2019-04-05 06:00:00 8.7 7 Sudoeste 16 Oeste 0 982.2 -1.3 61
2019-04-05 05:00:00 8.8 5 Sudeste 14 Sudoeste 0 982.7 -1.3 60
2019-04-05 04:00:00 9.3 6 Sudoeste 15 Sudoeste 0 983.1 -1.7 57
2019-04-05 03:00:00 9.9 5 Sudoeste 14 Sudoeste 0 983.5 -1.7 54
2019-04-05 02:00:00 10.4 2 Sudoeste 19 Sudoeste 0 984 -0.8 52
2019-04-05 01:00:00 10.9 3 Sur 37 Sudoeste 0 984.8 0.3 50
2019-04-05 00:00:00 11.5 16 Sudoeste 54 Sudoeste 0 985.2 1 46
2019-04-04 23:00:00 12.8 13 Sudoeste 50 Sudoeste 0 984.8 0.6 41
2019-04-04 22:00:00 11.2 0 Calma 14 Sur 0 984.5 0.3 48
2019-04-04 21:00:00 14 7 Sudoeste 34 Sudoeste 0 984.2 -0.3 34
2019-04-04 20:00:00 14.6 9 Sudoeste 33 Sudoeste 0 984.2 -1 34
2019-04-04 19:00:00 14.7 7 Sudoeste 33 Sudoeste 0 984.2 -2 34
2019-04-04 18:00:00 14.6 8 Sudoeste 35 Sudoeste 0 984.5 -3.3 36
2019-04-04 17:00:00 15.1 7 Sudoeste 33 Sudoeste 0 985.2 -3.5 37
2019-04-04 16:00:00 14.2 4 Oeste 30 Sudoeste 0 986.2 -3.7 41
2019-04-04 15:00:00 13.1 9 Sudoeste 32 Este 0 987.8 -2.5 46
2019-04-04 14:00:00 12 6 Sudoeste 23 Sudoeste 0 988.7 -1.9 53
2019-04-04 13:00:00 10.5 9 Sudoeste 27 Sudoeste 0 989.9 -0.7 60
2019-04-04 12:00:00 9.4 7 Sur 16 Oeste 0 990.3 -0.7 70
2019-04-04 11:00:00 6.7 5 Sudoeste 17 Sudoeste 0 990.6 0.1 81
2019-04-04 10:00:00 5.4 9 Sudoeste 25 Sur 0.2 990.6 0.2 87
2019-04-04 09:00:00 3.9 9 Sudoeste 23 Sur 0 991 0.4 93
2019-04-04 08:00:00 2.5 6 Oeste 22 Sudoeste 0 990.5 -0.2 94
2019-04-04 07:00:00 2.4 10 Sudoeste 21 Sudoeste 1.6 990.4 -0.5 94
2019-04-04 06:00:00 2.6 5 Sudoeste 17 Sudoeste 0.7 990.6 -0.8 94
2019-04-04 05:00:00 2.8 3 Sudoeste 22 Sudoeste 4.7 990.7 -1.3 94
2019-04-04 04:00:00 3.1 7 Sudoeste 15 Oeste 0.4 990.9 -1.5 93
2019-04-04 03:00:00 2.9 8 Sudoeste 19 Sudoeste 0.4 991.4 -1.6 93
2019-04-04 02:00:00 3.3 3 Sudoeste 31 Sudoeste 2 992 -1.2 91
2019-04-04 01:00:00 3 7 Sudoeste 21 Sudoeste 0.9 992.4 -0.6 92
2019-04-04 00:00:00 2.9 9 Sudoeste 25 Sudoeste 1.7 993 -0.1 90
2019-04-03 23:00:00 3.2 6 Sudoeste 29 Sudoeste 0 993.2 0.6 87
2019-04-03 22:00:00 3.2 17 Sudoeste 49 Sudoeste 3.2 993 0.5 85
2019-04-03 21:00:00 4.9 5 Sudoeste 23 Sur 0 993.1 0.6 82
2019-04-03 20:00:00 5.4 10 Sudoeste 39 Sudoeste 0.7 992.6 -0.4 76
2019-04-03 19:00:00 7.4 7 Sudoeste 18 Sur 0 992.5 -0.6 73
2019-04-03 18:00:00 7.5 6 Sur 26 Noroeste 0.8 992.5 -1.4 79
2019-04-03 17:00:00 7.3 10 Sudoeste 28 Sudoeste 0 993 -1.2 75
2019-04-03 16:00:00 6.2 13 Sudoeste 57 Oeste 0.3 993.1 -1.1 78
2019-04-03 15:00:00 7.6 10 Oeste 30 Oeste 0.3 993.9 -1.2 78
2019-04-03 14:00:00 8.5 11 Sudoeste 33 Oeste 0.5 994.2 -1 75
2019-04-03 13:00:00 8.8 9 Sudoeste 29 Sudoeste 0 994.2 -1.1 73
2019-04-03 12:00:00 6.7 9 Sudoeste 39 Oeste 0.7 995.1 -0.8 81
2019-04-03 11:00:00 7.8 10 Sudoeste 29 Sudoeste 0 995.2 -0.5 77
2019-04-03 10:00:00 7.2 13 Sudoeste 24 Sudoeste 0.2 995.3 -0.5 80
2019-04-03 09:00:00 6.8 6 Sudoeste 24 Oeste 0.1 995.9 -0.1 81
2019-04-03 08:00:00 7.5 11 Noroeste 25 Oeste 0 995.7 -1.4 79
2019-04-03 07:00:00 7.8 13 Oeste 31 Oeste 0.2 995.8 -1.7 84
2019-04-03 06:00:00 7.7 4 Sudoeste 24 Oeste 0.1 996 -2.6 90
2019-04-03 05:00:00 7.7 0 Calma 13 Sudoeste 0.1 997.1 -2.4 90
2019-04-03 04:00:00 7.8 4 Sudoeste 10 Sur 0.1 997.5 -2.5 89
2019-04-03 03:00:00 8 0 Calma 19 Sudoeste 0.4 998.6 -1.9 87
2019-04-03 02:00:00 8.6 0 Calma 8 Este 0.2 999.5 -1 90
2019-04-03 01:00:00 8.7 0 Calma 9 Sur 0.3 1000 -0.6 90
2019-04-03 00:00:00 9.3 0 Calma 14 Oeste 0.5 1000.5 0.4 90
2019-04-02 23:00:00 9.8 0 Calma 12 Sudoeste 0.3 1000.5 0.2 88
2019-04-02 22:00:00 10.1 4 Noroeste 12 Oeste 0.4 1000.6 0.3 89
2019-04-02 21:00:00 10.8 2 Este 10 Oeste 0.2 1000.1 -0.3 82
2019-04-02 20:00:00 12.2 4 Oeste 14 Oeste 0 1000.3 -0.6 69
2019-04-02 19:00:00 12.4 10 Noroeste 21 Oeste 0 1000.3 -0.8 66
2019-04-02 18:00:00 13.5 9 Oeste 19 Noroeste 0 1000.4 -0.9 64
2019-04-02 17:00:00 13.5 5 Noroeste 22 Noroeste 0 1000.9 -1 66
2019-04-02 16:00:00 14.1 6 Noroeste 22 Noroeste 0 1001.1 -1.5 67
2019-04-02 15:00:00 14.6 10 Noroeste 22 Noroeste 0 1001.3 -1.7 62
2019-04-02 14:00:00 14.6 10 Oeste 26 Oeste 0 1001.9 -1.2 62
2019-04-02 13:00:00 14.8 8 Oeste 22 Oeste 0 1002.6 -0.1 66
2019-04-02 12:00:00 12.9 4 Oeste 16 Oeste 0 1003 0.7 74
2019-04-02 11:00:00 11.4 0 Calma 9 Este 0 1003.1 1.2 86
2019-04-02 10:00:00 10.8 0 Calma -- -- 0 1002.7 1.2 93
2019-04-02 09:00:00 8 0 Calma 5 Sur 0 1002.3 1.2 95
2019-04-02 08:00:00 7.2 0 Calma -- -- 0 1001.9 0.7 94
2019-04-02 07:00:00 7.8 0 Calma 7 Sudoeste 0 1001.5 0.1 93
2019-04-02 06:00:00 8.5 0 Calma 9 Sudoeste 0 1001.1 -0.5 92
2019-04-02 05:00:00 9.7 0 Calma 9 Sur 0 1001.2 -0.6 90
2019-04-02 04:00:00 10.1 0 Calma 5 Sudoeste 0 1001.4 -0.5 89
2019-04-02 03:00:00 10.4 0 Calma -- -- 0 1001.6 -0.1 87
2019-04-02 02:00:00 11 0 Calma -- -- 0 1001.8 0.4 87
2019-04-02 01:00:00 11 0 Calma -- -- 0 1001.9 0.8 84
2019-04-02 00:00:00 11.4 0 Calma -- -- 0 1001.7 1.2 82
2019-04-01 23:00:00 11.8 0 Calma -- -- 0 1001.4 1.5 79
2019-04-01 22:00:00 12.2 0 Calma -- -- 0 1001.1 1.7 78
2019-04-01 21:00:00 12.6 0 Calma 9 Norte 0 1000.5 1.1 74
2019-04-01 20:00:00 13.1 5 Norte 12 Nordeste 0 999.9 0.5 72
2019-04-01 19:00:00 13.8 5 Norte 13 Norte 0 999.4 -0.2 69
2019-04-01 18:00:00 14.4 5 Norte 15 Norte 0 999.4 -0.7 68
2019-04-01 17:00:00 14.6 8 Norte 14 Noroeste 0 999.4 -1 67
2019-04-01 16:00:00 15 6 Norte 11 Noroeste 0 999.6 -1.1 66
2019-04-01 15:00:00 14.3 6 Norte 12 Nordeste 0 1000.1 -1.1 69
2019-04-01 14:00:00 14.4 0 Calma -- -- 0 1000.4 -1 68
2019-04-01 13:00:00 14 0 Calma 0 Calma 0 1000.7 -0.3 72
2019-04-01 12:00:00 12.3 0 Calma 6 Nordeste 0 1001.2 0.6 89
2019-04-01 11:00:00 10.3 0 Calma 5 Este 0 1001.4 1.1 95
2019-04-01 10:00:00 9.7 0 Calma 4 Sudoeste 0.1 1001 0.7 95
2019-04-01 09:00:00 9.2 0 Calma 6 Sudoeste 0 1000.6 0.3 95
2019-04-01 08:00:00 9 0 Calma 5 Sudoeste 0.1 1000.3 0 95
2019-04-01 07:00:00 9 0 Calma 8 Sudoeste 0.5 1000.3 -0.4 94
2019-04-01 06:00:00 9.3 0 Calma -- -- 0.2 1000.3 -0.3 93
2019-04-01 05:00:00 9.4 0 Calma 12 Oeste 0.8 1000.3 0.1 90
2019-04-01 04:00:00 10.4 3 Sudoeste 22 Sudoeste 0.4 1000.7 0.6 81
2019-04-01 03:00:00 12.4 14 Sudoeste 32 Sudoeste 0 1000.6 0.4 66
2019-04-01 02:00:00 12.9 3 Sur 15 Sur 0 1000.2 0.1 64
2019-04-01 01:00:00 10.8 2 Norte 10 Sudoeste 0 1000.1 0.2 77
2019-04-01 00:00:00 11 0 Calma -- -- 0 1000.2 0.9 76
2019-03-31 23:00:00 11.4 0 Calma -- -- 0 1000.1 1.1 75
2019-03-31 22:00:00 12.4 0 Calma 10 Nordeste 0 999.9 1 73
2019-03-31 21:00:00 13 7 Norte 13 Norte 0 999.3 0.5 65
2019-03-31 20:00:00 14.6 7 Norte 17 Noroeste 0 999 0 50
2019-03-31 19:00:00 15.6 10 Noroeste 21 Norte 0 998.9 -0.1 49
2019-03-31 18:00:00 15.7 11 Norte 20 Norte 0 998.8 -0.8 51
2019-03-31 17:00:00 16.7 11 Norte 28 Norte 0 999 -1.2 47
2019-03-31 16:00:00 18 13 Norte 24 Norte 0 999 -1.9 46
2019-03-31 15:00:00 19.3 12 Norte 24 Noroeste 0 999.6 -2 41
2019-03-31 14:00:00 20.1 4 Norte 19 Este 0 1000.2 -1.6 42
2019-03-31 13:00:00 19.2 3 Oeste 9 Oeste 0 1000.9 -1 47
2019-03-31 12:00:00 16.8 0 Calma 6 Oeste 0 1001.6 -0.3 54
2019-03-31 11:00:00 13.6 0 Calma 10 Sudoeste 0 1001.8 0.1 68
2019-03-31 10:00:00 10 0 Calma 5 Oeste 0 1001.9 0.4 75
2019-03-31 09:00:00 6.7 0 Calma 13 Sudoeste 0 1001.9 0.2 81
2019-03-31 08:00:00 6.1 4 Sur 22 Sudoeste 0 1001.7 -0.5 80
2019-03-31 07:00:00 6.4 13 Sudoeste 23 Sudoeste 0 1001.5 -1.3 80
2019-03-31 06:00:00 7 11 Sudoeste 26 Sudoeste 0 1001.7 -1.5 75
2019-03-31 05:00:00 7.7 16 Sudoeste 27 Sudoeste 0 1002.2 -1.5 75
2019-03-31 03:00:00 7.9 12 Sudoeste 21 Sur 0 1003.2 -0.9 78
2019-03-31 01:00:00 7.9 2 Sur 11 Sudoeste 0 1003.7 -0.2 75
2019-03-31 00:00:00 8.8 0 Calma 12 Sudoeste 0 1004.1 0.7 72
2019-03-30 23:00:00 9.7 4 Sudoeste 10 Sudoeste 0 1004.1 1.6 68
2019-03-30 22:00:00 10.8 2 Sur 7 Sudoeste 0 1003.9 1.9 61
2019-03-30 21:00:00 12.6 0 Calma -- -- 0 1003.4 1.7 54
2019-03-30 20:00:00 14.8 0 Calma 7 Este 0 1002.5 0.8 45
2019-03-30 19:00:00 17.4 0 Calma 20 Norte 0 1002 0.2 40
2019-03-30 18:00:00 18.8 9 Norte 19 Norte 0 1001.7 -0.8 39
2019-03-30 17:00:00 19.6 8 Norte 20 Noroeste 0 1001.7 -1.6 38
2019-03-30 16:00:00 21.6 7 Norte 14 Oeste 0 1001.8 -2.3 37
2019-03-30 15:00:00 22.3 6 Sudoeste 16 Norte 0 1002.5 -2.3 35
2019-03-30 14:00:00 21.2 3 Nordeste 18 Nordeste 0 1003.3 -2.1 38
2019-03-30 13:00:00 20.7 2 Este 17 Oeste 0 1004.1 -1.7 38
2019-03-30 12:00:00 19.2 4 Nordeste 17 Sudoeste 0 1004.8 -1.1 40
2019-03-30 11:00:00 17.4 5 Noroeste 17 Oeste 0 1005.4 -0.5 41
2019-03-30 10:00:00 15.9 2 Noroeste 20 Sudoeste 0 1005.8 0.2 43
2019-03-30 09:00:00 14.1 3 Oeste 19 Sudeste 0 1005.9 0.4 44
2019-03-30 08:00:00 12.9 6 Sur 31 Sudoeste 0 1005.9 0.5 44
2019-03-30 07:00:00 12.5 7 Sudoeste 26 Sudoeste 0 1005.6 0.2 43
2019-03-30 06:00:00 13.5 11 Sudoeste 27 Sudoeste 0 1005.5 -0.1 41
2019-03-30 05:00:00 13.6 2 Sudeste 30 Este 0 1005.4 -0.4 40
2019-03-30 04:00:00 15.3 11 Sudeste 37 Este 0 1005.4 -0.3 37
2019-03-30 03:00:00 15.4 17 Sudeste 48 Este 0 1005.6 0 39
2019-03-30 02:00:00 15.6 27 Este 56 Este 0 1005.8 0.1 39
2019-03-30 01:00:00 16.1 25 Este 58 Este 0 1005.7 -0.1 39
2019-03-30 00:00:00 16.6 25 Este 51 Este 0 1005.6 -0.1 39
2019-03-29 23:00:00 16.9 20 Este 55 Este 0 1005.7 0.4 38
2019-03-29 22:00:00 17.4 18 Este 55 Este 0 1005.8 0.9 36
2019-03-29 21:00:00 17.7 19 Este 41 Este 0 1005.7 1.1 36
2019-03-29 20:00:00 15.8 3 Sur 21 Nordeste 0 1005.3 0.5 39
2019-03-29 19:00:00 19 0 Calma 30 Este 0 1004.9 -0.4 34
2019-03-29 18:00:00 20.7 14 Este 27 Este 0 1004.6 -1.5 32
2019-03-29 17:00:00 21.3 9 Nordeste 25 Sudoeste 0 1004.8 -2.1 33
2019-03-29 16:00:00 21.9 6 Sudoeste 29 Sudoeste 0 1005.3 -2.4 32
2019-03-29 15:00:00 21.6 3 Noroeste 24 Sudoeste 0 1006.1 -2.5 33
2019-03-29 14:00:00 20.6 3 Oeste 19 Oeste 0 1006.9 -2.9 35
2019-03-29 13:00:00 19.3 0 Calma 22 Nordeste 0 1007.7 -2.8 38
2019-03-29 12:00:00 17.6 5 Sudoeste 12 Sudoeste 0 1008.6 -2.3 46
2019-03-29 11:00:00 13.7 2 Este 8 Este 0 1009.8 -1.6 63
2019-03-29 10:00:00 9.6 0 Calma 8 Sudoeste 0 1010.5 -1.1 78
2019-03-29 09:00:00 6.2 2 Sur 18 Sudoeste 0 1010.9 -0.6 90
2019-03-29 08:00:00 3.9 8 Sudoeste 19 Sudoeste 0 1011.4 -0.4 96
2019-03-29 07:00:00 2.8 0 Calma 10 Sudoeste 0 1011.6 -0.4 96
2019-03-29 06:00:00 3 3 Sur 12 Sudoeste 0 1011.5 -0.9 96
2019-03-29 05:00:00 2.9 0 Calma -- -- 0 1011.8 -1 95
2019-03-29 04:00:00 3.3 0 Calma 3 Oeste 0 1012 -1.2 94
2019-03-29 03:00:00 3.5 0 Calma -- -- 0 1012.4 -1.2 93
2019-03-29 02:00:00 4 0 Calma -- -- 0 1012.8 -1.3 92
2019-03-29 01:00:00 4.5 0 Calma 6 Sudoeste 0 1013.2 -1.2 90
2019-03-29 00:00:00 5.2 0 Calma 10 Sudoeste 0 1013.6 -0.7 90
2019-03-28 23:00:00 5.9 4 Sudoeste 10 Sudoeste 0 1014.1 0.3 88
2019-03-28 22:00:00 6.6 0 Calma 0 Calma 0 1014.4 0.5 86
2019-03-28 21:00:00 7.7 0 Calma 7 Este 0 1014.3 0.6 80
2019-03-28 20:00:00 8.8 3 Este 8 Norte 0 1013.8 0.1 75
2019-03-28 19:00:00 10.4 5 Norte 18 Norte 0 1013.9 0 72
2019-03-28 18:00:00 11.6 11 Norte 20 Norte 0 1013.7 -0.6 63
2019-03-28 17:00:00 12.7 9 Norte 18 Norte 0 1013.7 -1.2 59
2019-03-28 16:00:00 13.6 12 Norte 23 Nordeste 0 1013.9 -1.5 54
2019-03-28 15:00:00 14 9 Norte 26 Norte 0 1014.3 -1.6 53
2019-03-28 14:00:00 13.9 10 Norte 22 Norte 0 1014.9 -1.6 56
2019-03-28 13:00:00 13.9 10 Nordeste 18 Nordeste 0 1015.4 -1.4 56
2019-03-28 12:00:00 13.7 9 Norte 19 Nordeste 0 1015.9 -0.8 55
2019-03-28 11:00:00 13.4 3 Sudeste 12 Este 0 1016.5 -0.1 69
2019-03-28 10:00:00 10.9 0 Calma -- -- 0 1016.8 0.5 82
2019-03-28 09:00:00 8.1 0 Calma -- -- 0 1016.7 0.7 90
2019-03-28 08:00:00 6.5 0 Calma -- -- 0 1016.6 0.7 91
2019-03-28 07:00:00 6.4 0 Calma 15 Sudoeste 0 1016.3 0.5 91
2019-03-28 06:00:00 6 5 Sudoeste 12 Sudoeste 0 1016 0.3 91
2019-03-28 05:00:00 5.9 0 Calma 4 Sudeste 0 1015.9 -0.2 89
2019-03-28 04:00:00 6.5 0 Calma 7 Sudoeste 0 1015.8 -0.5 88
2019-03-28 03:00:00 6.8 5 Sudoeste 12 Sudoeste 0 1015.7 -0.7 87
2019-03-28 02:00:00 6.6 0 Calma 14 Sudoeste 0 1016.1 -0.4 87
2019-03-28 01:00:00 6.8 8 Sudoeste 16 Sudoeste 0 1016.3 -0.1 85
2019-03-28 00:00:00 7.3 0 Calma 4 Oeste 0 1016.4 0.1 84
2019-03-27 23:00:00 7.5 0 Calma 10 Sudoeste 0 1016.5 0.8 82
2019-03-27 22:00:00 7.8 0 Calma -- -- 0 1016.4 1 79
2019-03-27 21:00:00 8.4 0 Calma 8 Oeste 0 1016.3 1.8 75
2019-03-27 20:00:00 9.4 0 Calma 15 Norte 0 1015.7 1.2 72
2019-03-27 19:00:00 9.6 8 Norte 19 Noroeste 0 1015.4 0.9 68
2019-03-27 18:00:00 10.5 10 Norte 22 Norte 0 1014.5 0 64
2019-03-27 17:00:00 11.2 13 Norte 24 Noroeste 0 1014.5 -0.1 57
2019-03-27 16:00:00 12.2 12 Norte 24 Norte 0 1014.5 -0.4 51
2019-03-27 15:00:00 12.5 14 Norte 24 Nordeste 0 1014.5 -0.7 46
2019-03-27 14:00:00 13.1 11 Norte 26 Nordeste 0 1014.6 -0.6 44
2019-03-27 13:00:00 12.9 12 Nordeste 24 Norte 0 1014.9 0.3 45
2019-03-27 12:00:00 12.7 6 Norte 17 Nordeste 0 1015.2 0.5 53
2019-03-27 11:00:00 12 2 Este 9 Sudeste 0 1015.2 0.4 67
2019-03-27 10:00:00 8.2 0 Calma 4 Este 0 1014.6 0.5 85
2019-03-27 09:00:00 5.2 0 Calma 6 Nordeste 0 1014.7 1 97
2019-03-27 08:00:00 2.2 0 Calma 6 Sudoeste 0 1014.8 1.2 97
2019-03-27 07:00:00 1.5 0 Calma 7 Oeste 0 1014.1 0.5 96
2019-03-27 06:00:00 2 0 Calma 10 Sudoeste 0 1013.7 0.1 96
2019-03-27 05:00:00 2.5 3 Sudoeste 9 Sur 0 1013.6 -0.3 95
2019-03-27 04:00:00 2.9 3 Sur 8 Sudoeste 0 1013.6 -0.4 94
2019-03-27 03:00:00 3.3 0 Calma 5 Sudoeste 0 1013.6 -0.5 93
2019-03-27 02:00:00 4.1 0 Calma 12 Sudoeste 0 1013.9 -0.2 90
2019-03-27 01:00:00 4.6 3 Sur 12 Sudoeste 0 1014 0.4 88
2019-03-27 00:00:00 5.4 5 Sudoeste 11 Sudoeste 0 1014.1 0.5 86